| time (UTC) | temp F | wind direction | speed MPH | gust MPH | rain 1hr in | rain 24hr in | rain mn in | humidity % | barometer mb |
| 20260506043632 | 48 | 8 | 0.0 | 3.0 | 0.02 | 0.54 | 0.54 | 75 | 1014.4 |
| 20260506043131 | 47 | 358 | 4.0 | 7.0 | 0.02 | 0.54 | 0.54 | 74 | 1014.4 |
| 20260506042630 | 48 | 343 | 3.0 | 6.0 | 0.02 | 0.54 | 0.54 | 74 | 1014.5 |
| 20260506042129 | 48 | 351 | 4.0 | 19.0 | 0.02 | 0.54 | 0.54 | 70 | 1014.6 |
| 20260506041628 | 49 | 323 | 5.0 | 15.0 | 0.01 | 0.53 | 0.53 | 67 | 1014.5 |
| 20260506041127 | 49 | 324 | 4.0 | 7.0 | 0.00 | 0.52 | 0.52 | 72 | 1014.3 |
| 20260506040626 | 49 | 333 | 1.0 | 11.0 | 0.00 | 0.52 | 0.52 | 69 | 1014.3 |
| 20260506040125 | 50 | 267 | 0.0 | 1.0 | 0.00 | 0.52 | 0.52 | 78 | 1013.9 |
| 20260506035624 | 50 | 327 | 0.0 | 0.0 | 0.00 | 0.61 | 0.61 | 77 | 1013.7 |
| 20260506035123 | 50 | 327 | 0.0 | 0.0 | 0.00 | 0.61 | 0.61 | 77 | 1013.7 |
| 20260506034622 | 50 | 327 | 0.0 | 0.0 | 0.00 | 0.61 | 0.61 | 78 | 1013.7 |
| 20260506034121 | 50 | 327 | 0.0 | 0.0 | 0.00 | 0.61 | 0.61 | 78 | 1013.5 |
| 20260506033620 | 50 | 327 | 0.0 | 0.0 | 0.00 | 0.61 | 0.61 | 79 | 1013.3 |
| 20260506033119 | 50 | 327 | 0.0 | 0.0 | 0.00 | 0.61 | 0.61 | 80 | 1013.1 |
| 20260506032618 | 50 | 327 | 0.0 | 0.0 | 0.00 | 0.61 | 0.61 | 80 | 1013.1 |
| 20260506032117 | 50 | 327 | 0.0 | 0.0 | 0.00 | 0.61 | 0.61 | 81 | 1013.0 |
| 20260506031616 | 50 | 327 | 0.0 | 2.0 | 0.00 | 0.61 | 0.61 | 81 | 1012.9 |
| 20260506031115 | 50 | 303 | 0.0 | 0.0 | 0.00 | 0.61 | 0.61 | 82 | 1012.9 |
| 20260506030614 | 50 | 303 | 0.0 | 0.0 | 0.00 | 0.61 | 0.61 | 82 | 1012.9 |
| 20260506030113 | 50 | 303 | 0.0 | 1.0 | 0.00 | 0.61 | 0.61 | 82 | 1012.8 |
| 20260506025612 | 50 | 334 | 0.0 | 5.0 | 0.00 | 0.91 | 0.61 | 83 | 1012.6 |
| 20260506025111 | 49 | 1 | 2.0 | 5.0 | 0.00 | 0.91 | 0.61 | 84 | 1012.5 |
| 20260506024610 | 49 | 45 | 2.0 | 5.0 | 0.00 | 0.91 | 0.61 | 88 | 1012.4 |
| 20260506024109 | 50 | 16 | 1.0 | 1.0 | 0.00 | 0.91 | 0.61 | 93 | 1012.4 |
| 20260506023608 | 50 | 16 | 0.0 | 0.0 | 0.00 | 0.91 | 0.61 | 94 | 1012.5 |
| 20260506023107 | 50 | 16 | 0.0 | 0.0 | 0.00 | 0.91 | 0.61 | 94 | 1012.2 |
| 20260506022606 | 50 | 16 | 0.0 | 0.0 | 0.00 | 0.91 | 0.61 | 94 | 1012.2 |
| 20260506022105 | 50 | 16 | 0.0 | 0.0 | 0.00 | 0.91 | 0.61 | 94 | 1012.2 |
| 20260506021604 | 50 | 16 | 0.0 | 0.0 | 0.00 | 0.91 | 0.61 | 94 | 1012.1 |
| 20260506021103 | 50 | 16 | 0.0 | 0.0 | 0.00 | 0.91 | 0.61 | 93 | 1012.0 |
| 20260506020602 | 50 | 16 | 0.0 | 0.0 | 0.00 | 0.91 | 0.61 | 93 | 1011.8 |
| 20260506015600 | 50 | 16 | 0.0 | 0.0 | 0.00 | 0.91 | 0.61 | 90 | 1011.6 |
| 20260506015059 | 50 | 16 | 0.0 | 0.0 | 0.00 | 0.91 | 0.61 | 89 | 1011.6 |
| 20260506014558 | 50 | 16 | 0.0 | 0.0 | 0.00 | 0.91 | 0.61 | 89 | 1011.6 |
| 20260506014057 | 51 | 16 | 0.0 | 0.0 | 0.00 | 0.91 | 0.61 | 88 | 1011.5 |
| 20260506013556 | 51 | 16 | 0.0 | 0.0 | 0.00 | 0.91 | 0.61 | 88 | 1011.5 |
| 20260506013055 | 51 | 16 | 0.0 | 0.0 | 0.00 | 0.91 | 0.61 | 88 | 1011.5 |
| 20260506012554 | 51 | 16 | 0.0 | 0.0 | 0.00 | 0.91 | 0.61 | 87 | 1011.5 |
| 20260506012053 | 51 | 16 | 0.0 | 0.0 | 0.00 | 0.91 | 0.61 | 87 | 1011.5 |
| 20260506011552 | 51 | 16 | 0.0 | 0.0 | 0.00 | 0.91 | 0.61 | 86 | 1011.4 |
| 20260506011051 | 52 | 16 | 0.0 | 0.0 | 0.00 | 0.91 | 0.61 | 86 | 1011.5 |
| 20260506010550 | 52 | 16 | 0.0 | 0.0 | 0.00 | 0.91 | 0.61 | 86 | 1011.4 |
| 20260506010049 | 52 | 16 | 0.0 | 0.0 | 0.00 | 0.91 | 0.61 | 86 | 1011.4 |
| 20260506005548 | 52 | 16 | 0.0 | 0.0 | 0.00 | 0.91 | 0.61 | 85 | 1011.3 |
| 20260506005047 | 52 | 16 | 0.0 | 0.0 | 0.00 | 0.91 | 0.61 | 85 | 1011.4 |
| 20260506004546 | 52 | 16 | 0.0 | 0.0 | 0.00 | 0.91 | 0.61 | 85 | 1011.3 |
| 20260506004045 | 52 | 16 | 0.0 | 0.0 | 0.00 | 0.91 | 0.61 | 85 | 1011.2 |
| 20260506003544 | 52 | 16 | 0.0 | 0.0 | 0.00 | 0.91 | 0.61 | 85 | 1011.2 |
| 20260506003043 | 52 | 16 | 0.0 | 0.0 | 0.00 | 0.91 | 0.61 | 84 | 1011.4 |
| 20260506002542 | 52 | 16 | 0.0 | 0.0 | 0.00 | 0.91 | 0.61 | 84 | 1011.3 |
| 20260506002041 | 52 | 16 | 0.0 | 0.0 | 0.00 | 0.91 | 0.61 | 84 | 1011.3 |
| 20260506001540 | 52 | 16 | 0.0 | 0.0 | 0.00 | 0.91 | 0.61 | 84 | 1011.1 |
| 20260506001039 | 52 | 16 | 0.0 | 0.0 | 0.00 | 0.91 | 0.61 | 83 | 1010.9 |
| 20260506000538 | 52 | 16 | 0.0 | 0.0 | 0.00 | 0.91 | 0.61 | 83 | 1011.0 |
| 20260506000038 | 52 | 16 | 0.0 | 0.0 | 0.00 | 0.91 | 0.61 | 82 | 1011.0 |
| 20260505235536 | 52 | 16 | 0.0 | 0.0 | 0.00 | 0.91 | 0.61 | 83 | 1011.1 |
| 20260505235035 | 52 | 16 | 0.0 | 0.0 | 0.00 | 0.91 | 0.61 | 83 | 1011.0 |
| 20260505234534 | 52 | 16 | 0.0 | 0.0 | 0.00 | 0.91 | 0.61 | 83 | 1010.9 |
| 20260505234033 | 52 | 16 | 0.0 | 0.0 | 0.00 | 0.91 | 0.61 | 83 | 1011.0 |
| 20260505233533 | 52 | 16 | 0.0 | 0.0 | 0.00 | 0.91 | 0.61 | 84 | 1011.2 |
| 20260505233031 | 52 | 16 | 0.0 | 0.0 | 0.00 | 0.91 | 0.61 | 84 | 1011.1 |
| 20260505232530 | 52 | 16 | 0.0 | 0.0 | 0.00 | 0.91 | 0.61 | 84 | 1011.0 |
| 20260505232029 | 52 | 16 | 0.0 | 0.0 | 0.00 | 0.91 | 0.61 | 83 | 1011.1 |
| 20260505231528 | 52 | 16 | 0.0 | 0.0 | 0.00 | 0.91 | 0.61 | 83 | 1011.3 |
| 20260505231027 | 52 | 16 | 0.0 | 0.0 | 0.00 | 0.91 | 0.61 | 84 | 1011.3 |
| 20260505230526 | 52 | 16 | 0.0 | 0.0 | 0.00 | 0.91 | 0.61 | 84 | 1011.3 |
| 20260505230025 | 52 | 16 | 0.0 | 0.0 | 0.00 | 0.91 | 0.61 | 84 | 1011.4 |
| 20260505225524 | 51 | 16 | 0.0 | 0.0 | 0.00 | 0.91 | 0.61 | 84 | 1011.3 |
| 20260505225024 | 52 | 16 | 0.0 | 0.0 | 0.00 | 0.91 | 0.61 | 85 | 1011.1 |
| 20260505224522 | 51 | 16 | 0.0 | 0.0 | 0.00 | 0.91 | 0.61 | 85 | 1010.9 |
| 20260505224021 | 51 | 16 | 0.0 | 0.0 | 0.00 | 0.91 | 0.61 | 85 | 1011.0 |
| 20260505223520 | 51 | 16 | 0.0 | 0.0 | 0.00 | 0.91 | 0.61 | 85 | 1011.1 |
| 20260505223019 | 51 | 16 | 0.0 | 0.0 | 0.00 | 0.91 | 0.61 | 85 | 1011.1 |
| 20260505222518 | 51 | 16 | 0.0 | 0.0 | 0.00 | 0.91 | 0.61 | 85 | 1011.2 |
| 20260505222017 | 51 | 16 | 0.0 | 0.0 | 0.00 | 0.91 | 0.61 | 85 | 1011.2 |
| 20260505221516 | 51 | 16 | 0.0 | 0.0 | 0.00 | 0.91 | 0.61 | 85 | 1011.2 |
| 20260505221015 | 51 | 16 | 0.0 | 0.0 | 0.00 | 0.91 | 0.61 | 84 | 1011.2 |
| 20260505220514 | 50 | 16 | 0.0 | 0.0 | 0.00 | 0.91 | 0.61 | 85 | 1011.2 |
| 20260505220013 | 50 | 16 | 0.0 | 0.0 | 0.00 | 0.91 | 0.61 | 85 | 1011.1 |
| 20260505215512 | 50 | 16 | 0.0 | 0.0 | 0.00 | 0.91 | 0.61 | 85 | 1011.2 |
| 20260505215011 | 50 | 16 | 0.0 | 0.0 | 0.00 | 0.91 | 0.61 | 85 | 1011.1 |
| 20260505214510 | 50 | 16 | 0.0 | 0.0 | 0.00 | 0.91 | 0.61 | 86 | 1011.2 |
| 20260505214009 | 50 | 16 | 0.0 | 0.0 | 0.00 | 0.91 | 0.61 | 86 | 1011.2 |
| 20260505213509 | 50 | 16 | 0.0 | 0.0 | 0.00 | 0.91 | 0.61 | 86 | 1011.2 |
| 20260505213008 | 50 | 16 | 0.0 | 0.0 | 0.00 | 0.91 | 0.61 | 86 | 1011.3 |
| 20260505212506 | 50 | 16 | 0.0 | 0.0 | 0.00 | 0.91 | 0.61 | 86 | 1011.3 |
| 20260505212005 | 49 | 16 | 0.0 | 0.0 | 0.00 | 0.91 | 0.61 | 87 | 1011.4 |
| 20260505211504 | 49 | 16 | 0.0 | 0.0 | 0.00 | 0.91 | 0.61 | 87 | 1011.4 |
| 20260505211003 | 49 | 16 | 0.0 | 0.0 | 0.00 | 0.91 | 0.61 | 87 | 1011.3 |
| 20260505210503 | 49 | 16 | 0.0 | 0.0 | 0.00 | 0.91 | 0.61 | 88 | 1011.3 |
| 20260505210001 | 49 | 16 | 0.0 | 2.0 | 0.00 | 0.91 | 0.61 | 87 | 1011.4 |
| 20260505205501 | 49 | 8 | 0.0 | 2.0 | 0.00 | 0.91 | 0.61 | 88 | 1011.5 |
| 20260505204959 | 49 | 14 | 0.0 | 0.0 | 0.00 | 0.91 | 0.61 | 88 | 1011.6 |
| 20260505204458 | 49 | 43 | 0.0 | 0.0 | 0.00 | 0.91 | 0.61 | 89 | 1011.7 |
| 20260505203957 | 49 | 43 | 0.0 | 0.0 | 0.00 | 0.91 | 0.61 | 90 | 1011.8 |
| 20260505203456 | 49 | 43 | 0.0 | 0.0 | 0.00 | 0.91 | 0.61 | 91 | 1011.6 |
| 20260505202955 | 49 | 43 | 0.0 | 0.0 | 0.00 | 0.91 | 0.61 | 91 | 1011.5 |
| 20260505202454 | 49 | 43 | 0.0 | 0.0 | 0.00 | 0.91 | 0.61 | 91 | 1011.6 |
| 20260505201953 | 49 | 43 | 0.0 | 0.0 | 0.00 | 0.91 | 0.61 | 91 | 1011.5 |
| 20260505201452 | 49 | 43 | 0.0 | 0.0 | 0.00 | 0.91 | 0.61 | 91 | 1011.6 |
| 20260505200951 | 48 | 43 | 0.0 | 0.0 | 0.00 | 0.91 | 0.61 | 90 | 1011.7 |
| 20260505200451 | 48 | 43 | 0.0 | 0.0 | 0.00 | 0.91 | 0.61 | 89 | 1011.7 |
| 20260505195949 | 48 | 43 | 0.0 | 0.0 | 0.00 | 0.91 | 0.61 | 88 | 1011.7 |
| 20260505195448 | 48 | 43 | 0.0 | 0.0 | 0.00 | 0.91 | 0.61 | 88 | 1011.7 |
| 20260505194947 | 48 | 43 | 0.0 | 2.0 | 0.00 | 0.91 | 0.61 | 89 | 1011.7 |
| 20260505194446 | 48 | 43 | 0.0 | 6.0 | 0.00 | 0.91 | 0.61 | 90 | 1011.6 |
| 20260505193946 | 48 | 29 | 0.0 | 0.0 | 0.00 | 0.91 | 0.61 | 90 | 1011.6 |
| 20260505193445 | 48 | 50 | 2.0 | 3.0 | 0.00 | 0.91 | 0.61 | 90 | 1011.7 |
| 20260505192943 | 48 | 9 | 0.0 | 3.0 | 0.00 | 0.91 | 0.61 | 91 | 1011.6 |
| 20260505192442 | 48 | 37 | 1.0 | 4.0 | 0.01 | 0.91 | 0.61 | 91 | 1011.6 |
| 20260505191941 | 48 | 90 | 0.0 | 2.0 | 0.01 | 0.91 | 0.61 | 92 | 1011.5 |
| 20260505191441 | 48 | 90 | 2.0 | 3.0 | 0.01 | 0.91 | 0.61 | 92 | 1011.5 |
| 20260505190939 | 48 | 80 | 2.0 | 3.0 | 0.01 | 0.91 | 0.61 | 92 | 1011.6 |
| 20260505190438 | 48 | 67 | 1.0 | 1.0 | 0.01 | 0.91 | 0.61 | 93 | 1011.7 |
| 20260505185937 | 48 | 163 | 0.0 | 3.0 | 0.02 | 0.91 | 0.61 | 94 | 1011.7 |
| 20260505185437 | 48 | 95 | 0.0 | 1.0 | 0.03 | 0.91 | 0.61 | 95 | 1011.8 |
| 20260505184936 | 48 | 91 | 4.0 | 4.0 | 0.03 | 0.91 | 0.61 | 95 | 1011.8 |
| 20260505184434 | 48 | 112 | 0.0 | 1.0 | 0.04 | 0.91 | 0.61 | 95 | 1011.6 |
| 20260505183933 | 48 | 153 | 0.0 | 4.0 | 0.04 | 0.91 | 0.61 | 95 | 1011.6 |
| 20260505183432 | 48 | 151 | 1.0 | 4.0 | 0.04 | 0.91 | 0.61 | 95 | 1011.8 |
| 20260505182931 | 47 | 149 | 1.0 | 5.0 | 0.04 | 0.91 | 0.61 | 95 | 1011.9 |
| 20260505182430 | 47 | 80 | 4.0 | 5.0 | 0.03 | 0.90 | 0.60 | 95 | 1012.1 |
| 20260505181929 | 47 | 122 | 1.0 | 5.0 | 0.03 | 0.90 | 0.60 | 95 | 1012.4 |
| 20260505181428 | 47 | 92 | 1.0 | 5.0 | 0.03 | 0.90 | 0.60 | 95 | 1012.2 |
| 20260505180927 | 48 | 101 | 0.0 | 5.0 | 0.03 | 0.90 | 0.60 | 95 | 1012.4 |
| 20260505180427 | 47 | 57 | 0.0 | 2.0 | 0.02 | 0.89 | 0.59 | 95 | 1012.5 |
| 20260505175926 | 47 | 84 | 2.0 | 3.0 | 0.01 | 0.88 | 0.58 | 95 | 1012.4 |
| 20260505175424 | 47 | 5 | 2.0 | 6.0 | 0.01 | 0.88 | 0.58 | 94 | 1012.5 |
| 20260505174923 | 47 | 60 | 1.0 | 6.0 | 0.01 | 0.88 | 0.58 | 95 | 1012.5 |
| 20260505174422 | 47 | 56 | 0.0 | 3.0 | 0.00 | 0.87 | 0.57 | 95 | 1012.7 |
| 20260505173921 | 47 | 35 | 2.0 | 8.0 | 0.00 | 0.87 | 0.57 | 94 | 1012.6 |
| 20260505173420 | 47 | 78 | 0.0 | 6.0 | 0.01 | 0.87 | 0.57 | 95 | 1012.6 |
| 20260505172919 | 47 | 60 | 4.0 | 7.0 | 0.01 | 0.87 | 0.57 | 95 | 1012.5 |
| 20260505172418 | 47 | 35 | 5.0 | 5.0 | 0.01 | 0.87 | 0.57 | 95 | 1012.6 |
| 20260505171918 | 47 | 61 | 4.0 | 6.0 | 0.02 | 0.87 | 0.57 | 95 | 1012.5 |
| 20260505171416 | 47 | 54 | 5.0 | 8.0 | 0.02 | 0.87 | 0.57 | 95 | 1012.5 |
| 20260505170915 | 47 | 81 | 6.0 | 8.0 | 0.02 | 0.87 | 0.57 | 95 | 1012.6 |
| 20260505170414 | 46 | 98 | 5.0 | 6.0 | 0.02 | 0.87 | 0.57 | 95 | 1012.6 |
| 20260505165913 | 46 | 23 | 1.0 | 7.0 | 0.03 | 0.87 | 0.57 | 95 | 1012.2 |
| 20260505165412 | 46 | 90 | 3.0 | 8.0 | 0.04 | 0.87 | 0.57 | 95 | 1012.1 |
| 20260505164911 | 46 | 77 | 4.0 | 8.0 | 0.05 | 0.87 | 0.57 | 95 | 1012.4 |
| 20260505164410 | 46 | 91 | 1.0 | 6.0 | 0.06 | 0.87 | 0.57 | 95 | 1012.4 |
| 20260505163909 | 46 | 63 | 4.0 | 9.0 | 0.07 | 0.87 | 0.57 | 95 | 1012.0 |
| 20260505163408 | 46 | 73 | 5.0 | 9.0 | 0.06 | 0.86 | 0.56 | 95 | 1012.1 |
| 20260505162907 | 46 | 42 | 2.0 | 7.0 | 0.07 | 0.86 | 0.56 | 95 | 1012.2 |
| 20260505162406 | 46 | 14 | 2.0 | 7.0 | 0.07 | 0.86 | 0.56 | 95 | 1012.4 |
| 20260505161905 | 46 | 73 | 4.0 | 7.0 | 0.06 | 0.85 | 0.55 | 94 | 1012.4 |
| 20260505161404 | 46 | 78 | 5.0 | 8.0 | 0.07 | 0.85 | 0.55 | 94 | 1012.5 |
| 20260505160903 | 46 | 33 | 2.0 | 8.0 | 0.07 | 0.85 | 0.55 | 93 | 1012.4 |
| 20260505160402 | 46 | 46 | 8.0 | 10.0 | 0.07 | 0.85 | 0.55 | 94 | 1012.5 |
| 20260505153356 | 47 | 12 | 0.0 | 10.0 | 0.02 | 0.80 | 0.50 | 91 | 1012.7 |
| 20260505152855 | 47 | 32 | 6.0 | 10.0 | 0.01 | 0.79 | 0.49 | 92 | 1012.2 |
| 20260505152354 | 47 | 63 | 5.0 | 8.0 | 0.01 | 0.79 | 0.49 | 92 | 1012.0 |
| 20260505151853 | 47 | 39 | 3.0 | 7.0 | 0.01 | 0.79 | 0.49 | 92 | 1012.0 |
| 20260505151352 | 47 | 358 | 2.0 | 9.0 | 0.00 | 0.78 | 0.48 | 93 | 1012.0 |
| 20260505150851 | 47 | 46 | 3.0 | 10.0 | 0.00 | 0.78 | 0.48 | 94 | 1011.9 |
| 20260505150350 | 47 | 19 | 5.0 | 9.0 | 0.01 | 0.78 | 0.48 | 94 | 1012.0 |
| 20260505140338 | 48 | 30 | 3.0 | 4.0 | 0.12 | 0.77 | 0.47 | 92 | 1011.6 |
| 20260505124824 | 49 | 59 | 1.0 | 5.0 | 0.01 | 0.65 | 0.35 | 86 | 1009.7 |
| 20260505124322 | 49 | 99 | 4.0 | 6.0 | 0.02 | 0.65 | 0.35 | 85 | 1009.7 |
| 20260505123821 | 49 | 66 | 0.0 | 5.0 | 0.02 | 0.65 | 0.35 | 85 | 1009.3 |
| 20260505123320 | 49 | 30 | 0.0 | 3.0 | 0.02 | 0.65 | 0.35 | 85 | 1009.4 |
| 20260505122819 | 49 | 39 | 0.0 | 7.0 | 0.02 | 0.65 | 0.35 | 83 | 1009.6 |
| 20260505122318 | 49 | 73 | 0.0 | 7.0 | 0.02 | 0.65 | 0.35 | 82 | 1009.4 |
| 20260505121817 | 49 | 84 | 9.0 | 9.0 | 0.02 | 0.65 | 0.35 | 82 | 1009.2 |
| 20260505121316 | 49 | 52 | 8.0 | 9.0 | 0.02 | 0.65 | 0.35 | 82 | 1009.2 |
| 20260505120815 | 49 | 53 | 3.0 | 8.0 | 0.02 | 0.65 | 0.35 | 80 | 1009.2 |
| 20260505120314 | 49 | 59 | 5.0 | 12.0 | 0.01 | 0.64 | 0.34 | 79 | 1009.1 |
| 20260505115813 | 50 | 23 | 3.0 | 8.0 | 0.01 | 0.64 | 0.34 | 79 | 1009.1 |
| 20260505115312 | 50 | 61 | 0.0 | 7.0 | 0.01 | 0.64 | 0.34 | 79 | 1009.0 |
| 20260505114811 | 50 | 11 | 2.0 | 8.0 | 0.01 | 0.64 | 0.34 | 78 | 1008.9 |
| 20260505114310 | 51 | 77 | 0.0 | 8.0 | 0.00 | 0.63 | 0.33 | 77 | 1009.0 |
| 20260505113809 | 51 | 57 | 3.0 | 7.0 | 0.00 | 0.63 | 0.33 | 75 | 1008.9 |
| 20260505113308 | 51 | 82 | 2.0 | 6.0 | 0.00 | 0.63 | 0.33 | 75 | 1008.8 |
| 20260505112807 | 51 | 47 | 4.0 | 10.0 | 0.00 | 0.63 | 0.33 | 74 | 1009.0 |
| 20260505112306 | 50 | 11 | 4.0 | 10.0 | 0.00 | 0.63 | 0.33 | 76 | 1008.9 |
| 20260505111805 | 50 | 16 | 0.0 | 9.0 | 0.00 | 0.63 | 0.33 | 76 | 1008.8 |
| 20260505111304 | 50 | 45 | 1.0 | 7.0 | 0.00 | 0.63 | 0.33 | 77 | 1009.0 |
| 20260505110803 | 50 | 18 | 0.0 | 8.0 | 0.00 | 0.63 | 0.33 | 77 | 1008.7 |
| 20260505110302 | 50 | 60 | 7.0 | 11.0 | 0.00 | 0.63 | 0.33 | 78 | 1008.7 |
| 20260505101753 | 49 | 28 | 1.0 | 6.0 | 0.00 | 0.63 | 0.33 | 85 | 1008.6 |
| 20260505101252 | 49 | 59 | 3.0 | 9.0 | 0.00 | 0.63 | 0.33 | 85 | 1008.7 |
| 20260505100751 | 49 | 9 | 0.0 | 9.0 | 0.00 | 0.63 | 0.33 | 85 | 1008.7 |
| 20260505100250 | 49 | 14 | 4.0 | 10.0 | 0.00 | 0.63 | 0.33 | 86 | 1008.8 |
| 20260505095749 | 49 | 25 | 6.0 | 7.0 | 0.00 | 0.63 | 0.33 | 86 | 1009.1 |
| 20260505095248 | 49 | 12 | 0.0 | 7.0 | 0.00 | 0.63 | 0.33 | 86 | 1009.2 |
| 20260505094747 | 49 | 358 | 0.0 | 8.0 | 0.00 | 0.63 | 0.33 | 86 | 1009.0 |
| 20260505094246 | 50 | 32 | 0.0 | 8.0 | 0.00 | 0.63 | 0.33 | 85 | 1008.7 |
| 20260505093745 | 49 | 8 | 0.0 | 5.0 | 0.00 | 0.63 | 0.33 | 84 | 1008.7 |
| 20260505093244 | 49 | 74 | 3.0 | 8.0 | 0.00 | 0.63 | 0.33 | 84 | 1008.6 |
| 20260505092743 | 49 | 350 | 2.0 | 12.0 | 0.00 | 0.63 | 0.33 | 85 | 1008.5 |
| 20260505092242 | 49 | 21 | 2.0 | 9.0 | 0.00 | 0.63 | 0.33 | 84 | 1008.4 |
| 20260505091741 | 49 | 42 | 2.0 | 6.0 | 0.01 | 0.63 | 0.33 | 85 | 1008.3 |
| 20260505091240 | 49 | 60 | 0.0 | 8.0 | 0.01 | 0.63 | 0.33 | 85 | 1008.2 |
| 20260505090739 | 49 | 92 | 7.0 | 10.0 | 0.03 | 0.63 | 0.33 | 86 | 1007.7 |
| 20260505090238 | 49 | 98 | 7.0 | 11.0 | 0.06 | 0.63 | 0.33 | 85 | 1007.5 |
| 20260505085737 | 49 | 52 | 4.0 | 15.0 | 0.07 | 0.63 | 0.33 | 85 | 1007.3 |
| 20260505085236 | 49 | 8 | 9.0 | 13.0 | 0.09 | 0.63 | 0.33 | 85 | 1007.1 |
| 20260505084735 | 49 | 42 | 7.0 | 15.0 | 0.11 | 0.63 | 0.33 | 85 | 1006.9 |
| 20260505084234 | 49 | 343 | 7.0 | 17.0 | 0.14 | 0.63 | 0.33 | 86 | 1007.1 |
| 20260505083733 | 49 | 23 | 11.0 | 14.0 | 0.15 | 0.63 | 0.33 | 89 | 1006.9 |
| 20260505083232 | 48 | 33 | 8.0 | 16.0 | 0.18 | 0.63 | 0.33 | 91 | 1006.9 |
| 20260505082731 | 48 | 45 | 6.0 | 12.0 | 0.20 | 0.63 | 0.33 | 93 | 1006.8 |
| 20260505082230 | 48 | 59 | 10.0 | 14.0 | 0.21 | 0.63 | 0.33 | 95 | 1006.6 |
| 20260505081729 | 48 | 331 | 6.0 | 15.0 | 0.21 | 0.62 | 0.32 | 95 | 1007.0 |
| 20260505081228 | 49 | 77 | 7.0 | 14.0 | 0.21 | 0.61 | 0.31 | 94 | 1005.3 |
| 20260505080727 | 49 | 66 | 3.0 | 10.0 | 0.18 | 0.58 | 0.28 | 90 | 1007.3 |
| 20260505080226 | 50 | 39 | 5.0 | 9.0 | 0.17 | 0.57 | 0.27 | 86 | 1007.9 |
| 20260505075725 | 50 | 36 | 5.0 | 10.0 | 0.16 | 0.55 | 0.25 | 85 | 1007.9 |
| 20260505075224 | 50 | 92 | 3.0 | 7.0 | 0.14 | 0.53 | 0.23 | 85 | 1008.0 |
| 20260505074723 | 51 | 39 | 4.0 | 10.0 | 0.12 | 0.51 | 0.21 | 82 | 1008.4 |
| 20260505074222 | 51 | 11 | 3.0 | 7.0 | 0.10 | 0.49 | 0.19 | 81 | 1008.7 |
| 20260505073721 | 52 | 19 | 1.0 | 7.0 | 0.08 | 0.47 | 0.17 | 77 | 1008.8 |
| 20260505073220 | 53 | 35 | 1.0 | 8.0 | 0.05 | 0.44 | 0.14 | 76 | 1008.7 |
| 20260505072719 | 53 | 336 | 1.0 | 3.0 | 0.04 | 0.43 | 0.13 | 72 | 1009.4 |
| 20260505072218 | 54 | 268 | 0.0 | 2.0 | 0.02 | 0.41 | 0.11 | 71 | 1009.0 |
| 20260505071717 | 54 | 329 | 0.0 | 4.0 | 0.02 | 0.41 | 0.11 | 71 | 1008.7 |
| 20260505071216 | 55 | 347 | 0.0 | 2.0 | 0.01 | 0.40 | 0.10 | 69 | 1008.2 |
| 20260505070715 | 55 | 326 | 0.0 | 3.0 | 0.01 | 0.40 | 0.10 | 67 | 1008.0 |
| 20260505070214 | 56 | 360 | 3.0 | 7.0 | 0.00 | 0.39 | 0.09 | 65 | 1007.6 |
| 20260505065713 | 56 | 345 | 2.0 | 10.0 | 0.00 | 0.39 | 0.09 | 63 | 1007.4 |
| 20260505065212 | 57 | 5 | 6.0 | 9.0 | 0.00 | 0.39 | 0.09 | 61 | 1007.0 |
| 20260505064711 | 57 | 1 | 4.0 | 9.0 | 0.00 | 0.39 | 0.09 | 58 | 1006.9 |
| 20260505064210 | 58 | 334 | 0.0 | 10.0 | 0.00 | 0.39 | 0.09 | 57 | 1006.5 |
| 20260505063709 | 58 | 357 | 6.0 | 15.0 | 0.00 | 0.39 | 0.09 | 57 | 1006.4 |
| 20260505063208 | 58 | 14 | 4.0 | 17.0 | 0.00 | 0.39 | 0.09 | 57 | 1006.1 |
| 20260505062707 | 58 | 8 | 8.0 | 15.0 | 0.00 | 0.39 | 0.09 | 58 | 1006.1 |
| 20260505062206 | 58 | 53 | 3.0 | 12.0 | 0.01 | 0.39 | 0.09 | 61 | 1006.6 |
| 20260505061705 | 58 | 348 | 3.0 | 15.0 | 0.01 | 0.39 | 0.09 | 62 | 1006.2 |
| 20260505061204 | 58 | 23 | 8.0 | 15.0 | 0.01 | 0.39 | 0.09 | 62 | 1006.0 |
| 20260505060703 | 58 | 15 | 7.0 | 10.0 | 0.01 | 0.39 | 0.09 | 68 | 1005.7 |
| 20260505060202 | 59 | 22 | 1.0 | 8.0 | 0.03 | 0.39 | 0.09 | 69 | 1005.4 |
| 20260505055701 | 59 | 1 | 4.0 | 10.0 | 0.11 | 0.39 | 0.09 | 68 | 1005.2 |
| 20260505055200 | 59 | 8 | 3.0 | 16.0 | 0.37 | 0.39 | 0.09 | 67 | 1005.1 |
| 20260505054659 | 58 | 19 | 5.0 | 14.0 | 0.39 | 0.39 | 0.09 | 71 | 1004.9 |
| 20260505054158 | 58 | 11 | 5.0 | 13.0 | 0.39 | 0.39 | 0.09 | 73 | 1004.7 |
| 20260505053657 | 58 | 22 | 7.0 | 12.0 | 0.39 | 0.39 | 0.09 | 79 | 1004.9 |
| 20260505053156 | 57 | 22 | 4.0 | 8.0 | 0.39 | 0.39 | 0.09 | 82 | 1005.1 |
| 20260505052655 | 57 | 8 | 5.0 | 6.0 | 0.39 | 0.39 | 0.09 | 85 | 1005.0 |
| 20260505052154 | 57 | 350 | 2.0 | 5.0 | 0.38 | 0.38 | 0.08 | 85 | 1005.0 |
| 20260505051653 | 57 | 53 | 2.0 | 8.0 | 0.38 | 0.38 | 0.08 | 84 | 1004.9 |
| 20260505051152 | 57 | 64 | 6.0 | 11.0 | 0.38 | 0.38 | 0.08 | 83 | 1004.6 |
| 20260505050651 | 58 | 90 | 8.0 | 8.0 | 0.38 | 0.38 | 0.08 | 81 | 1004.8 |
| 20260505050150 | 58 | 1 | 1.0 | 13.0 | 0.32 | 0.32 | 0.02 | 79 | 1004.5 |